Time;durP1;ratioP1;P1;durP2;ratioP2;P2;SDS_P1;SDS_P2;PMS_P1;PMS_P2;Temp;Humidity;BMP_temperature;BMP_pressure;BME280_temperature;BME280_humidity;BME280_pressure;Samples;Min_cycle;Max_cycle;Signal;HPM_P1;HPM_P2
2022/10/20 00:01:39;;;;;;;5.97;4.83;;;14.30;93.80;;;;;;6274993;28;20470;-60
2022/10/20 00:07:59;;;;;;;4.20;3.90;;;14.30;93.80;;;;;;7270850;23;20885;-60
2022/10/20 00:11:02;;;;;;;7.37;4.37;;;14.20;94.00;;;;;;6186279;28;20811;-60
2022/10/20 00:14:06;;;;;;;5.93;4.80;;;14.20;94.10;;;;;;6210795;28;20985;-60
2022/10/20 00:17:10;;;;;;;4.70;4.30;;;14.20;94.00;;;;;;6214966;28;20535;-60
2022/10/20 00:20:14;;;;;;;6.73;4.27;;;14.30;93.80;;;;;;6222578;28;21024;-61
2022/10/20 00:23:22;;;;;;;4.83;4.20;;;14.20;93.80;;;;;;6223448;28;20813;-60
2022/10/20 00:26:26;;;;;;;5.10;4.03;;;14.20;93.80;;;;;;6224089;28;20488;-61
2022/10/20 00:29:29;;;;;;;8.67;4.27;;;14.30;93.70;;;;;;6223976;28;20491;-60
2022/10/20 00:32:34;;;;;;;6.83;4.10;;;14.30;93.50;;;;;;6223853;28;20491;-60
2022/10/20 00:35:38;;;;;;;4.67;4.20;;;14.40;93.40;;;;;;6224016;28;20476;-61
2022/10/20 00:38:42;;;;;;;5.00;4.50;;;14.40;93.20;;;;;;6218237;28;20476;-61
2022/10/20 00:41:45;;;;;;;6.50;4.37;;;14.40;92.90;;;;;;6211132;28;20464;-61
2022/10/20 00:44:52;;;;;;;5.27;4.70;;;14.40;92.90;;;;;;6213430;28;20558;-61
2022/10/20 00:48:00;;;;;;;4.77;3.93;;;14.40;93.10;;;;;;6207436;28;20465;-61
2022/10/20 00:51:04;;;;;;;4.73;4.33;;;14.40;92.90;;;;;;6212760;28;20539;-61
2022/10/20 00:54:10;;;;;;;4.17;3.87;;;14.20;92.50;;;;;;6212359;28;20469;-62
2022/10/20 00:57:13;;;;;;;4.27;3.63;;;14.20;92.60;;;;;;6209908;28;21036;-61
2022/10/20 01:00:17;;;;;;;3.70;3.40;;;14.20;92.60;;;;;;6212791;28;20504;-61
2022/10/20 01:03:25;;;;;;;7.80;4.07;;;14.10;92.50;;;;;;6205532;28;20464;-61
2022/10/20 01:06:29;;;;;;;3.50;2.97;;;14.10;92.50;;;;;;6204605;28;20480;-61
2022/10/20 01:09:33;;;;;;;6.47;3.50;;;14.10;92.00;;;;;;6204822;28;20481;-61
2022/10/20 01:12:44;;;;;;;5.47;3.70;;;14.10;91.80;;;;;;6213070;28;20978;-61
2022/10/20 01:15:57;;;;;;;4.57;3.37;;;14.10;92.40;;;;;;6215981;28;20469;-61
2022/10/20 01:19:16;;;;;;;4.00;3.70;;;14.20;92.20;;;;;;6218111;28;20484;-61
2022/10/20 01:22:33;;;;;;;6.63;3.80;;;14.30;92.10;;;;;;6218647;28;20535;-61
2022/10/20 01:25:51;;;;;;;5.13;3.67;;;14.40;91.60;;;;;;6217502;28;20472;-61
2022/10/20 01:28:59;;;;;;;3.47;3.27;;;14.40;91.50;;;;;;6217370;28;20488;-61
2022/10/20 01:32:09;;;;;;;3.97;3.67;;;14.40;91.50;;;;;;6215739;28;20503;-61
2022/10/20 01:35:21;;;;;;;3.90;3.60;;;14.50;91.30;;;;;;6215172;28;20792;-61
2022/10/20 01:38:30;;;;;;;3.40;3.20;;;14.60;91.40;;;;;;6218721;28;20852;-61
2022/10/20 01:41:38;;;;;;;3.97;3.50;;;14.60;91.30;;;;;;6215120;28;20811;-61
2022/10/20 01:44:44;;;;;;;4.20;3.47;;;14.60;91.40;;;;;;6217060;28;20538;-61
2022/10/20 01:47:48;;;;;;;5.10;3.80;;;14.60;91.00;;;;;;6215544;28;20461;-61
2022/10/20 01:50:51;;;;;;;3.33;3.03;;;14.60;90.90;;;;;;6207509;28;20456;-61
2022/10/20 01:53:55;;;;;;;3.73;3.13;;;14.60;91.00;;;;;;6200255;28;20499;-61
2022/10/20 01:57:12;;;;;;;3.87;3.57;;;14.70;91.00;;;;;;6204399;28;20445;-61
2022/10/20 02:00:18;;;;;;;4.57;3.70;;;14.60;90.90;;;;;;6203857;28;20851;-61
2022/10/20 02:03:40;;;;;;;5.37;3.97;;;14.70;91.00;;;;;;6203963;28;20468;-61
2022/10/20 02:06:51;;;;;;;7.07;3.10;;;14.70;91.10;;;;;;6204390;28;20473;-61
2022/10/20 02:09:59;;;;;;;5.37;4.57;;;14.70;91.10;;;;;;6203631;28;20481;-61
2022/10/20 02:13:06;;;;;;;4.03;3.70;;;14.60;90.70;;;;;;6203571;28;20472;-61
2022/10/20 02:16:16;;;;;;;5.00;3.80;;;14.60;91.00;;;;;;6205730;28;20960;-62
2022/10/20 02:19:23;;;;;;;5.50;4.10;;;14.50;91.00;;;;;;6207409;28;20555;-61
2022/10/20 02:22:27;;;;;;;4.70;3.93;;;14.50;91.20;;;;;;6203833;28;20476;-61
2022/10/20 02:25:32;;;;;;;5.13;3.67;;;14.50;91.30;;;;;;6203551;28;20476;-61
2022/10/20 02:28:38;;;;;;;5.43;3.87;;;14.40;91.50;;;;;;6203194;28;20488;-61
2022/10/20 02:31:44;;;;;;;4.60;3.60;;;14.40;91.50;;;;;;6203086;28;20499;-61
2022/10/20 02:34:48;;;;;;;4.80;3.63;;;14.30;91.60;;;;;;6202938;28;20488;-61
2022/10/20 02:37:51;;;;;;;8.37;4.10;;;14.30;91.90;;;;;;6202879;28;20481;-61
2022/10/20 02:40:54;;;;;;;4.47;3.63;;;14.20;91.90;;;;;;6202964;28;20481;-61
2022/10/20 02:43:57;;;;;;;4.80;3.70;;;14.10;92.20;;;;;;6203080;28;20477;-61
2022/10/20 02:47:02;;;;;;;4.57;4.17;;;14.10;92.30;;;;;;6202613;28;20489;-61
2022/10/20 02:50:06;;;;;;;3.80;3.33;;;14.10;92.60;;;;;;6202589;28;20489;-61
2022/10/20 02:53:09;;;;;;;7.20;4.30;;;14.10;92.60;;;;;;6202539;28;20496;-61
2022/10/20 02:56:12;;;;;;;5.60;4.00;;;14.20;92.70;;;;;;6202240;28;20477;-61
2022/10/20 02:59:16;;;;;;;4.30;3.83;;;14.10;92.80;;;;;;6202861;28;20979;-61
2022/10/20 03:02:21;;;;;;;4.97;4.50;;;14.10;93.10;;;;;;6192953;28;20551;-61
2022/10/20 03:05:24;;;;;;;5.53;4.70;;;14.00;93.40;;;;;;6202490;28;20488;-61
2022/10/20 03:08:27;;;;;;;4.50;4.10;;;14.00;93.50;;;;;;6201831;28;20485;-61
2022/10/20 03:11:30;;;;;;;5.00;4.50;;;14.00;93.70;;;;;;6202844;28;20469;-61
2022/10/20 03:14:33;;;;;;;5.13;4.63;;;14.00;93.90;;;;;;6202331;28;20477;-61
2022/10/20 03:17:38;;;;;;;4.60;4.30;;;14.00;94.20;;;;;;6201476;28;20485;-61
2022/10/20 03:20:41;;;;;;;6.57;5.00;;;13.90;94.30;;;;;;6213087;28;20487;-61
2022/10/20 03:23:44;;;;;;;5.47;4.63;;;13.90;94.50;;;;;;6249980;28;20482;-61
2022/10/20 03:26:47;;;;;;;7.50;5.17;;;13.90;94.50;;;;;;6250613;28;20776;-61
2022/10/20 03:29:50;;;;;;;5.30;4.70;;;13.90;94.70;;;;;;6250668;28;20467;-62
2022/10/20 03:32:56;;;;;;;4.30;3.87;;;13.80;95.00;;;;;;6250757;28;20447;-61
2022/10/20 03:35:59;;;;;;;6.97;5.43;;;13.80;95.00;;;;;;6250901;28;20450;-61
2022/10/20 03:39:02;;;;;;;6.53;4.80;;;13.70;95.20;;;;;;6250639;28;20474;-61
2022/10/20 03:42:05;;;;;;;4.77;4.33;;;13.60;95.30;;;;;;6250686;28;20582;-61
2022/10/20 03:45:09;;;;;;;5.40;4.90;;;13.60;95.50;;;;;;6250879;28;20464;-61
2022/10/20 03:48:18;;;;;;;4.67;3.83;;;13.60;95.50;;;;;;6250503;28;20476;-61
2022/10/20 03:51:21;;;;;;;4.87;4.47;;;13.60;95.50;;;;;;6250708;28;20475;-61
2022/10/20 03:54:24;;;;;;;8.00;4.10;;;13.60;95.60;;;;;;6250035;28;20917;-62
2022/10/20 03:57:27;;;;;;;4.93;4.43;;;13.60;95.50;;;;;;6250413;28;20525;-62
2022/10/20 04:00:31;;;;;;;8.80;4.67;;;13.70;95.40;;;;;;6250356;28;20494;-61
2022/10/20 04:03:35;;;;;;;6.47;3.83;;;13.70;95.10;;;;;;6240765;28;20540;-61
2022/10/20 04:06:38;;;;;;;11.17;5.47;;;13.70;94.90;;;;;;6250448;28;20490;-61
2022/10/20 04:09:41;;;;;;;4.93;3.70;;;13.70;94.80;;;;;;6250090;28;20479;-61
2022/10/20 04:12:45;;;;;;;5.73;4.47;;;13.60;94.00;;;;;;6249816;28;20953;-62
2022/10/20 04:15:48;;;;;;;5.60;4.20;;;13.50;93.90;;;;;;6249552;28;20471;-61
2022/10/20 04:18:53;;;;;;;4.07;3.77;;;13.50;93.90;;;;;;6249458;28;20479;-61
2022/10/20 04:21:56;;;;;;;5.57;4.80;;;13.50;93.90;;;;;;6249678;28;20471;-61
2022/10/20 04:24:59;;;;;;;9.43;4.60;;;13.40;93.90;;;;;;6254088;28;20525;-61
2022/10/20 04:28:02;;;;;;;5.33;3.97;;;13.40;93.80;;;;;;6254510;28;20477;-61
2022/10/20 04:31:06;;;;;;;5.10;3.93;;;13.30;93.80;;;;;;6249721;28;20483;-61
2022/10/20 04:34:10;;;;;;;4.53;4.13;;;13.20;93.80;;;;;;6249902;28;20528;-61
2022/10/20 04:37:13;;;;;;;5.17;4.67;;;13.20;94.10;;;;;;6254803;28;20467;-61
2022/10/20 04:40:16;;;;;;;5.10;4.60;;;13.10;94.30;;;;;;6255298;28;20490;-61
2022/10/20 04:43:19;;;;;;;8.47;4.93;;;13.10;94.40;;;;;;6254651;28;20977;-62
2022/10/20 04:46:23;;;;;;;14.80;5.00;;;13.10;94.40;;;;;;6254584;28;20544;-62
2022/10/20 04:49:27;;;;;;;4.57;4.17;;;13.20;94.20;;;;;;6254298;28;20474;-62
2022/10/20 04:52:30;;;;;;;4.40;4.00;;;13.10;94.10;;;;;;6253920;28;20972;-61
2022/10/20 04:55:33;;;;;;;5.90;4.40;;;13.10;94.10;;;;;;6254645;28;20782;-62
2022/10/20 04:58:37;;;;;;;5.10;4.70;;;13.10;94.10;;;;;;6254422;28;20486;-62
2022/10/20 05:01:40;;;;;;;5.60;4.33;;;13.00;94.20;;;;;;6254079;28;20537;-62
2022/10/20 05:04:44;;;;;;;3.90;3.60;;;13.00;94.00;;;;;;6254025;28;20490;-61
2022/10/20 05:07:47;;;;;;;4.27;3.90;;;13.10;94.00;;;;;;6244590;28;20544;-61
2022/10/20 05:10:51;;;;;;;8.50;4.47;;;13.00;94.10;;;;;;6253924;28;20525;-61
2022/10/20 05:13:54;;;;;;;6.97;5.10;;;13.00;94.10;;;;;;6253578;28;20846;-61
2022/10/20 05:16:57;;;;;;;4.77;4.30;;;13.00;94.10;;;;;;6253620;28;20474;-61
2022/10/20 05:20:02;;;;;;;5.00;4.17;;;12.90;94.20;;;;;;6253551;28;20813;-61
2022/10/20 05:23:05;;;;;;;6.63;4.60;;;13.00;94.40;;;;;;6253774;28;20495;-61
2022/10/20 05:26:10;;;;;;;6.33;3.70;;;13.10;94.30;;;;;;6253480;28;20479;-61
2022/10/20 05:29:13;;;;;;;4.33;3.93;;;13.10;93.90;;;;;;6253866;28;20471;-62
2022/10/20 05:32:16;;;;;;;6.63;3.70;;;13.20;94.10;;;;;;6253931;28;20475;-61
2022/10/20 05:35:21;;;;;;;4.17;3.80;;;13.20;94.20;;;;;;6253510;28;20963;-61
2022/10/20 05:38:24;;;;;;;7.97;4.37;;;13.30;93.90;;;;;;6238450;28;20480;-61
2022/10/20 05:41:29;;;;;;;4.67;3.93;;;13.30;93.80;;;;;;6219413;28;20946;-61
2022/10/20 05:44:38;;;;;;;5.80;4.30;;;13.30;93.80;;;;;;6219423;28;20472;-61
2022/10/20 05:47:41;;;;;;;3.93;3.47;;;13.30;93.80;;;;;;6227513;28;20484;-62
2022/10/20 05:50:46;;;;;;;5.27;3.53;;;13.40;93.90;;;;;;6228456;28;20480;-61
2022/10/20 05:53:49;;;;;;;4.43;4.03;;;13.40;93.90;;;;;;6228378;28;20903;-61
2022/10/20 05:56:52;;;;;;;8.33;4.40;;;13.30;93.70;;;;;;6228388;28;20816;-61
2022/10/20 05:59:56;;;;;;;4.73;3.87;;;13.30;93.70;;;;;;6228684;28;20471;-61
2022/10/20 06:02:59;;;;;;;10.43;4.47;;;13.20;93.90;;;;;;6228241;28;20455;-61
2022/10/20 06:06:04;;;;;;;6.87;3.87;;;13.30;93.80;;;;;;6228568;28;20799;-61
2022/10/20 06:09:09;;;;;;;7.40;4.20;;;13.40;93.80;;;;;;6224897;28;20465;-62
2022/10/20 06:12:12;;;;;;;8.10;4.67;;;13.50;93.70;;;;;;6216629;28;20479;-62
2022/10/20 06:15:15;;;;;;;8.00;4.50;;;13.60;93.80;;;;;;6228319;28;20483;-62
2022/10/20 06:18:18;;;;;;;5.23;3.70;;;13.70;93.50;;;;;;6205881;28;20865;-61
2022/10/20 06:21:25;;;;;;;8.10;4.57;;;13.80;93.40;;;;;;6203955;28;20920;-61
2022/10/20 06:24:28;;;;;;;6.17;4.00;;;14.00;92.90;;;;;;6203057;28;20859;-61
2022/10/20 06:27:31;;;;;;;5.80;4.83;;;14.00;92.50;;;;;;6203476;28;20488;-61
2022/10/20 06:30:34;;;;;;;6.47;4.00;;;14.00;92.60;;;;;;6204265;28;20469;-61
2022/10/20 06:33:37;;;;;;;4.00;3.60;;;14.10;92.40;;;;;;6204515;28;20936;-61
2022/10/20 06:36:42;;;;;;;3.90;3.50;;;14.00;91.90;;;;;;6207405;28;20480;-61
2022/10/20 06:39:46;;;;;;;5.83;3.57;;;14.10;92.10;;;;;;6210759;28;20484;-61
2022/10/20 06:42:49;;;;;;;3.90;3.60;;;14.00;91.70;;;;;;6209154;28;20472;-61
2022/10/20 06:45:56;;;;;;;9.60;4.07;;;14.10;91.60;;;;;;6206900;28;20485;-61
2022/10/20 06:49:00;;;;;;;6.83;3.53;;;14.10;91.40;;;;;;6203813;28;20484;-61
2022/10/20 06:52:05;;;;;;;6.37;3.83;;;14.00;91.40;;;;;;6203989;28;20496;-61
2022/10/20 06:55:09;;;;;;;5.53;3.60;;;14.10;91.40;;;;;;6203777;28;20567;-61
2022/10/20 06:58:12;;;;;;;3.90;3.63;;;14.20;91.30;;;;;;6202706;28;20991;-61
2022/10/20 07:01:17;;;;;;;5.47;3.40;;;14.30;91.00;;;;;;6202789;28;20469;-61
2022/10/20 07:04:21;;;;;;;5.97;3.63;;;14.30;90.80;;;;;;6202594;28;20473;-61
2022/10/20 07:07:25;;;;;;;7.30;3.57;;;14.30;90.80;;;;;;6202862;28;20539;-61
2022/10/20 07:10:28;;;;;;;5.03;4.53;;;14.40;90.70;;;;;;6203533;28;20559;-61
2022/10/20 07:13:32;;;;;;;7.67;4.00;;;14.50;90.60;;;;;;6198265;28;20921;-61
2022/10/20 07:16:36;;;;;;;7.60;3.57;;;14.60;90.80;;;;;;6202216;28;20488;-61
2022/10/20 07:19:39;;;;;;;6.30;3.83;;;14.60;90.30;;;;;;6208800;28;20484;-62
2022/10/20 07:22:44;;;;;;;5.80;3.87;;;14.70;90.00;;;;;;6226040;28;20480;-62
2022/10/20 07:25:47;;;;;;;4.40;3.63;;;14.80;90.00;;;;;;6208411;28;20465;-62
2022/10/20 07:28:51;;;;;;;3.50;3.20;;;14.90;89.00;;;;;;6226629;28;20472;-62
2022/10/20 07:31:57;;;;;;;3.40;2.67;;;15.00;88.50;;;;;;6229850;28;20495;-62
2022/10/20 07:35:04;;;;;;;4.07;3.20;;;14.90;86.70;;;;;;6227841;28;20486;-62
2022/10/20 07:38:08;;;;;;;3.60;3.30;;;14.80;87.60;;;;;;6226207;28;20475;-62
2022/10/20 07:41:12;;;;;;;15.53;8.07;;;14.90;88.50;;;;;;6226358;28;20472;-62
2022/10/20 07:44:16;;;;;;;4.50;3.27;;;15.00;88.00;;;;;;6226113;28;20495;-62
2022/10/20 07:47:19;;;;;;;6.40;4.37;;;15.00;86.10;;;;;;6226148;28;20479;-62
2022/10/20 07:50:23;;;;;;;4.70;2.93;;;15.10;84.80;;;;;;6222700;28;20488;-62
2022/10/20 07:53:28;;;;;;;5.30;2.77;;;15.10;84.80;;;;;;6208237;28;20481;-60
2022/10/20 07:56:32;;;;;;;2.80;2.53;;;15.10;83.00;;;;;;6212318;28;20477;-60
2022/10/20 07:59:35;;;;;;;2.03;1.87;;;15.00;81.90;;;;;;6211388;28;20488;-60
2022/10/20 08:02:39;;;;;;;3.30;2.50;;;14.90;82.30;;;;;;6214258;28;20465;-60
2022/10/20 08:05:42;;;;;;;3.13;2.40;;;15.00;82.50;;;;;;6211889;28;20479;-60
2022/10/20 08:08:47;;;;;;;3.20;2.90;;;15.30;82.10;;;;;;6213784;28;20477;-60
2022/10/20 08:11:50;;;;;;;3.43;3.23;;;15.60;81.80;;;;;;6211567;28;20472;-60
2022/10/20 08:14:57;;;;;;;3.00;2.70;;;15.70;80.60;;;;;;6212454;28;20515;-60
2022/10/20 08:18:01;;;;;;;5.57;2.47;;;15.80;79.90;;;;;;6210287;28;20464;-60
2022/10/20 08:21:09;;;;;;;5.33;2.87;;;16.00;80.30;;;;;;6195002;28;20536;-61
2022/10/20 08:24:14;;;;;;;3.33;2.70;;;16.10;80.00;;;;;;6201760;28;20468;-61
2022/10/20 08:27:17;;;;;;;5.13;3.33;;;16.40;79.60;;;;;;6205967;28;20471;-63
2022/10/20 08:30:20;;;;;;;4.03;2.60;;;16.70;78.20;;;;;;6225717;28;20479;-62
2022/10/20 08:33:26;;;;;;;4.00;3.70;;;16.50;77.20;;;;;;6225878;28;20486;-62
2022/10/20 08:36:29;;;;;;;2.90;2.50;;;16.50;77.20;;;;;;6226300;28;20510;-61
2022/10/20 08:39:34;;;;;;;2.93;2.67;;;16.60;77.30;;;;;;6225961;28;20487;-64
2022/10/20 08:42:43;;;;;;;5.03;2.60;;;16.60;76.60;;;;;;6227288;28;20464;-59
2022/10/20 08:45:46;;;;;;;4.57;3.40;;;16.80;76.80;;;;;;6227326;28;20468;-59
2022/10/20 08:48:49;;;;;;;6.70;2.77;;;17.00;75.80;;;;;;6225092;28;20827;-62
2022/10/20 08:51:53;;;;;;;2.97;2.70;;;17.00;74.80;;;;;;6224934;28;20479;-59
2022/10/20 08:54:58;;;;;;;3.43;3.03;;;16.90;75.50;;;;;;6224714;28;20971;-59
2022/10/20 08:58:03;;;;;;;3.43;2.80;;;16.80;74.60;;;;;;6225291;28;20483;-59
2022/10/20 09:01:18;;;;;;;3.30;3.00;;;16.80;74.70;;;;;;6225431;28;20480;-60
2022/10/20 09:04:24;;;;;;;3.70;2.80;;;16.70;75.30;;;;;;6225452;28;20524;-59
2022/10/20 09:07:31;;;;;;;3.07;2.60;;;16.70;75.00;;;;;;6224719;28;20476;-59
2022/10/20 09:10:39;;;;;;;3.47;2.63;;;16.90;73.80;;;;;;6224929;28;20487;-59
2022/10/20 09:13:43;;;;;;;3.40;2.40;;;16.90;73.30;;;;;;6224457;28;20822;-60
2022/10/20 09:16:46;;;;;;;9.20;3.20;;;16.70;73.60;;;;;;6215361;28;20503;-59
2022/10/20 09:20:03;;;;;;;3.20;2.40;;;16.80;75.20;;;;;;6211797;28;20493;-58
2022/10/20 09:23:12;;;;;;;2.90;2.20;;;17.10;74.10;;;;;;6227565;28;20472;-58
2022/10/20 09:26:40;;;;;;;3.73;2.73;;;17.40;73.00;;;;;;6223398;28;20464;-58
2022/10/20 09:30:15;;;;;;;3.93;2.50;;;17.70;71.60;;;;;;6215224;28;20693;-58
2022/10/20 09:33:24;;;;;;;4.23;2.90;;;17.50;70.30;;;;;;6217549;28;20966;-58
2022/10/20 09:36:31;;;;;;;7.60;3.30;;;17.50;71.30;;;;;;6215425;28;20570;-58
2022/10/20 09:39:42;;;;;;;4.73;2.70;;;17.20;71.20;;;;;;6217568;28;20480;-58
2022/10/20 09:42:52;;;;;;;6.37;2.57;;;17.20;72.10;;;;;;6217381;28;20484;-59
2022/10/20 09:45:58;;;;;;;2.80;2.60;;;17.60;71.30;;;;;;6205216;28;20480;-60
2022/10/20 09:49:02;;;;;;;5.57;3.57;;;17.80;70.30;;;;;;6205265;28;20241;-61
2022/10/20 09:52:17;;;;;;;6.00;2.97;;;17.90;69.40;;;;;;6204761;28;20256;-59
2022/10/20 09:55:26;;;;;;;4.50;3.27;;;17.20;70.70;;;;;;6204251;28;20492;-58
2022/10/20 09:58:33;;;;;;;4.70;2.40;;;17.30;70.70;;;;;;6204158;28;20488;-58
2022/10/20 10:01:53;;;;;;;5.23;3.17;;;17.70;70.10;;;;;;6204062;28;20568;-58
2022/10/20 10:05:13;;;;;;;4.27;2.57;;;18.10;69.50;;;;;;6203501;28;20285;-58
2022/10/20 10:08:17;;;;;;;5.27;2.97;;;18.00;68.00;;;;;;6205424;28;20852;-60
2022/10/20 10:11:24;;;;;;;4.27;3.23;;;17.80;68.40;;;;;;6228465;28;20241;-60
2022/10/20 10:14:29;;;;;;;5.03;3.20;;;17.90;68.50;;;;;;6228108;28;20667;-59
2022/10/20 10:17:35;;;;;;;4.03;3.30;;;17.90;68.60;;;;;;6227714;28;20287;-58
2022/10/20 10:20:40;;;;;;;3.93;3.60;;;17.60;68.40;;;;;;6222259;28;20245;-60
2022/10/20 10:23:54;;;;;;;4.03;3.43;;;17.30;70.30;;;;;;6204119;28;20551;-59
2022/10/20 10:26:57;;;;;;;3.60;2.90;;;17.50;70.30;;;;;;6205209;28;20290;-58
2022/10/20 10:33:29;;;;;;;3.50;2.43;;;17.50;69.60;;;;;;6397112;27;20335;-59
2022/10/20 10:36:35;;;;;;;3.20;2.90;;;17.40;70.10;;;;;;6327590;28;20536;-59
2022/10/20 10:39:38;;;;;;;3.90;3.13;;;17.20;70.30;;;;;;6338210;27;20469;-60
2022/10/20 10:42:58;;;;;;;6.47;3.10;;;17.30;70.90;;;;;;6328342;28;20233;-60
2022/10/20 10:46:07;;;;;;;4.30;3.90;;;17.50;70.70;;;;;;6335935;28;20480;-60
2022/10/20 10:49:43;;;;;;;4.87;2.90;;;17.60;70.40;;;;;;6320789;28;20473;-59
2022/10/20 10:52:58;;;;;;;3.50;3.13;;;17.40;71.00;;;;;;6303799;28;20963;-61
2022/10/20 10:56:11;;;;;;;4.67;3.23;;;17.20;71.40;;;;;;6346000;28;20533;-61
2022/10/20 10:59:21;;;;;;;4.43;4.03;;;16.90;71.60;;;;;;6345861;28;20472;-60
2022/10/20 11:02:37;;;;;;;4.67;3.50;;;16.80;72.80;;;;;;6345761;28;20586;-62
2022/10/20 11:06:02;;;;;;;5.73;3.43;;;16.80;73.20;;;;;;6345528;28;20480;-60
2022/10/20 11:09:19;;;;;;;3.50;3.20;;;17.10;72.90;;;;;;6322314;28;20476;-61
2022/10/20 11:12:40;;;;;;;7.53;3.47;;;17.30;72.30;;;;;;6340904;28;20467;-60
2022/10/20 11:16:11;;;;;;;6.10;3.53;;;17.40;71.60;;;;;;6320457;28;20473;-61
2022/10/20 11:19:33;;;;;;;5.33;4.73;;;17.40;72.20;;;;;;6332677;28;20475;-60
2022/10/20 11:22:50;;;;;;;6.73;5.93;;;17.40;72.50;;;;;;6323424;28;20234;-61
2022/10/20 11:26:00;;;;;;;5.40;4.50;;;17.30;72.70;;;;;;6319846;28;20469;-60
2022/10/20 11:29:09;;;;;;;7.97;5.30;;;17.10;72.30;;;;;;6334494;27;20820;-60
2022/10/20 11:32:24;;;;;;;6.40;5.83;;;17.00;73.40;;;;;;6344944;27;20786;-62
2022/10/20 11:35:38;;;;;;;7.47;4.40;;;16.80;73.50;;;;;;6345002;27;20976;-61
2022/10/20 11:38:49;;;;;;;6.37;4.70;;;16.70;74.80;;;;;;6344723;27;20499;-61
2022/10/20 11:41:58;;;;;;;5.87;4.47;;;16.70;74.90;;;;;;6345888;27;20444;-61
2022/10/20 11:45:05;;;;;;;7.00;4.90;;;16.70;75.50;;;;;;6304102;28;20433;-60
2022/10/20 11:48:16;;;;;;;5.83;4.27;;;16.30;77.00;;;;;;6327869;28;20463;-63
2022/10/20 11:51:41;;;;;;;4.93;4.43;;;16.50;77.20;;;;;;6328509;28;20810;-60
2022/10/20 11:55:03;;;;;;;8.43;4.90;;;16.50;77.50;;;;;;6332605;28;20473;-61
2022/10/20 11:58:32;;;;;;;9.23;5.80;;;16.50;77.80;;;;;;6337960;28;20987;-60
2022/10/20 12:01:39;;;;;;;5.60;5.00;;;16.50;78.40;;;;;;6328946;28;20460;-60
2022/10/20 12:05:06;;;;;;;7.67;4.60;;;16.50;78.80;;;;;;6326908;28;20473;-59
2022/10/20 12:08:35;;;;;;;5.10;3.97;;;16.30;78.70;;;;;;6332083;28;20533;-60
2022/10/20 12:11:48;;;;;;;4.73;4.00;;;16.40;78.00;;;;;;6335647;28;20988;-60
2022/10/20 12:14:56;;;;;;;4.20;3.43;;;16.50;77.20;;;;;;6325311;28;20464;-60
2022/10/20 12:18:05;;;;;;;6.03;4.10;;;16.60;77.10;;;;;;6327880;28;20514;-60
2022/10/20 12:21:11;;;;;;;4.23;3.83;;;16.70;76.90;;;;;;6318194;28;20438;-60
2022/10/20 12:24:30;;;;;;;4.40;3.63;;;16.80;76.90;;;;;;6306083;28;20477;-60
2022/10/20 12:27:34;;;;;;;3.93;3.60;;;17.00;76.60;;;;;;6307170;28;20475;-60
2022/10/20 12:30:43;;;;;;;4.40;4.00;;;17.10;75.90;;;;;;6327087;28;20472;-59
2022/10/20 12:34:00;;;;;;;5.37;3.57;;;17.10;76.20;;;;;;6322178;28;21004;-59
2022/10/20 12:37:08;;;;;;;4.50;4.10;;;16.90;76.50;;;;;;6325490;28;20529;-60
2022/10/20 12:40:24;;;;;;;6.90;5.20;;;16.50;77.20;;;;;;6325538;28;20792;-60
2022/10/20 12:43:33;;;;;;;5.17;4.60;;;16.40;78.20;;;;;;6325493;28;20473;-59
2022/10/20 12:46:42;;;;;;;6.27;4.57;;;16.40;78.90;;;;;;6325521;28;20530;-59
2022/10/20 12:49:53;;;;;;;5.20;4.70;;;16.70;78.20;;;;;;6325706;28;20484;-59
2022/10/20 12:53:09;;;;;;;5.63;4.20;;;17.00;77.70;;;;;;6326242;28;20484;-60
2022/10/20 12:56:13;;;;;;;6.60;4.70;;;17.30;76.90;;;;;;6325349;28;20476;-59
2022/10/20 12:59:36;;;;;;;6.97;4.53;;;17.60;76.40;;;;;;6326456;28;20473;-60
2022/10/20 13:03:01;;;;;;;4.53;4.13;;;18.10;75.80;;;;;;6325417;28;20453;-61
2022/10/20 13:06:44;;;;;;;5.23;4.30;;;19.30;72.20;;;;;;6326040;28;20237;-61
2022/10/20 13:09:56;;;;;;;9.30;5.40;;;19.30;70.40;;;;;;6326324;28;20712;-61
2022/10/20 13:13:36;;;;;;;6.10;4.70;;;19.30;70.60;;;;;;6325914;28;20226;-61
2022/10/20 13:16:44;;;;;;;5.87;4.07;;;19.70;69.90;;;;;;6327756;28;20230;-62
2022/10/20 13:19:53;;;;;;;5.40;4.90;;;20.40;68.60;;;;;;6328190;28;20689;-60
2022/10/20 13:23:05;;;;;;;6.63;4.87;;;21.70;67.50;;;;;;6300995;28;20219;-62
2022/10/20 13:26:17;;;;;;;7.07;4.43;;;23.70;59.40;;;;;;6301086;28;20235;-61
2022/10/20 13:29:24;;;;;;;5.03;4.57;;;24.10;57.20;;;;;;6322572;28;20620;-62
2022/10/20 13:32:34;;;;;;;5.27;4.77;;;26.60;53.30;;;;;;6325295;28;20303;-60
2022/10/20 13:35:53;;;;;;;8.73;6.10;;;28.20;47.20;;;;;;6325787;28;20534;-60
2022/10/20 13:39:03;;;;;;;5.57;5.00;;;28.30;44.80;;;;;;6325423;28;20289;-62
2022/10/20 13:42:18;;;;;;;6.70;5.57;;;27.30;44.90;;;;;;6325518;28;20569;-61
2022/10/20 13:45:30;;;;;;;6.30;5.43;;;26.40;45.90;;;;;;6325991;28;20237;-62
2022/10/20 13:48:49;;;;;;;6.70;5.03;;;25.60;47.40;;;;;;6325806;28;20238;-61
2022/10/20 13:51:58;;;;;;;5.47;4.97;;;24.90;48.80;;;;;;6325510;28;20236;-61
2022/10/20 13:55:05;;;;;;;6.30;5.40;;;24.30;49.60;;;;;;6325289;28;20239;-61
2022/10/20 13:58:17;;;;;;;6.20;5.60;;;23.60;50.50;;;;;;6324718;28;20284;-62
2022/10/20 14:01:23;;;;;;;7.97;5.90;;;22.90;51.60;;;;;;6324994;28;20230;-61
2022/10/20 14:04:29;;;;;;;10.27;6.20;;;22.30;53.30;;;;;;6325035;28;20303;-61
2022/10/20 14:07:39;;;;;;;7.70;5.07;;;21.70;54.20;;;;;;6324683;28;20227;-62
2022/10/20 14:10:49;;;;;;;5.67;5.10;;;21.20;55.30;;;;;;6324538;28;20227;-60
2022/10/20 14:13:52;;;;;;;6.13;5.63;;;20.90;56.20;;;;;;6324603;28;20237;-61
2022/10/20 14:16:59;;;;;;;5.90;5.40;;;20.60;57.00;;;;;;6324390;28;20234;-61
2022/10/20 14:20:17;;;;;;;5.63;5.07;;;20.30;57.80;;;;;;6324214;28;20235;-61
2022/10/20 14:23:22;;;;;;;6.00;5.40;;;20.10;58.60;;;;;;6299524;28;20220;-61
2022/10/20 14:26:27;;;;;;;7.37;5.80;;;19.90;59.20;;;;;;6299602;28;20690;-61
2022/10/20 14:29:32;;;;;;;5.80;5.20;;;19.60;60.40;;;;;;6322428;28;20356;-62
2022/10/20 14:32:40;;;;;;;8.50;5.70;;;19.30;61.60;;;;;;6324332;28;20230;-61
2022/10/20 14:35:45;;;;;;;5.83;5.10;;;19.00;62.30;;;;;;6324554;28;20230;-59
2022/10/20 14:38:50;;;;;;;5.87;4.93;;;18.70;63.80;;;;;;6324183;28;20234;-62
2022/10/20 14:41:58;;;;;;;6.60;5.80;;;18.50;64.70;;;;;;6299356;28;20206;-62
2022/10/20 14:45:03;;;;;;;8.60;5.33;;;18.30;65.50;;;;;;6301452;28;20188;-60
2022/10/20 14:48:13;;;;;;;5.30;3.77;;;18.00;67.10;;;;;;6323832;28;20218;-60
2022/10/20 14:51:29;;;;;;;7.10;4.70;;;17.70;68.90;;;;;;6324324;28;20662;-61
2022/10/20 14:54:36;;;;;;;5.27;4.77;;;17.60;69.80;;;;;;6324042;28;20227;-58
2022/10/20 14:57:44;;;;;;;5.23;4.73;;;17.60;70.30;;;;;;6322675;28;20233;-60
2022/10/20 15:00:47;;;;;;;5.37;4.40;;;17.50;70.50;;;;;;6323559;28;20475;-61
2022/10/20 15:04:05;;;;;;;4.83;4.43;;;17.60;70.90;;;;;;6327512;28;20468;-61
2022/10/20 15:07:15;;;;;;;9.43;7.67;;;17.60;71.00;;;;;;6328872;28;20232;-61
2022/10/20 15:10:22;;;;;;;10.67;9.63;;;17.70;71.70;;;;;;6324548;28;20480;-63
2022/10/20 15:13:29;;;;;;;6.67;5.93;;;17.60;71.90;;;;;;6324574;28;20475;-62
2022/10/20 15:16:41;;;;;;;6.83;4.80;;;17.60;72.20;;;;;;6323849;28;21033;-62
2022/10/20 15:19:44;;;;;;;8.33;6.50;;;17.50;72.80;;;;;;6327750;28;20480;-62
2022/10/20 15:22:48;;;;;;;5.90;5.27;;;17.40;73.10;;;;;;6328207;28;20535;-61
2022/10/20 15:26:02;;;;;;;5.70;5.27;;;17.40;74.00;;;;;;6328207;28;20480;-61
2022/10/20 15:29:07;;;;;;;5.73;4.70;;;17.20;73.80;;;;;;6308403;28;20470;-62
2022/10/20 15:32:10;;;;;;;4.80;4.37;;;17.10;74.90;;;;;;6302612;28;20473;-62
2022/10/20 15:35:17;;;;;;;7.30;5.37;;;17.00;75.80;;;;;;6323250;28;20483;-61
2022/10/20 15:38:20;;;;;;;7.03;5.10;;;17.00;76.20;;;;;;6328071;28;20792;-61
2022/10/20 15:41:27;;;;;;;6.10;5.20;;;16.80;76.90;;;;;;6328842;28;20492;-61
2022/10/20 15:44:31;;;;;;;6.00;5.40;;;16.60;78.10;;;;;;6328432;28;20522;-61
2022/10/20 15:47:35;;;;;;;7.33;5.23;;;16.60;78.40;;;;;;6323004;28;20481;-61
2022/10/20 15:50:39;;;;;;;9.47;5.30;;;16.50;78.80;;;;;;6327945;28;20469;-65
2022/10/20 15:53:44;;;;;;;6.80;5.93;;;16.50;79.50;;;;;;6328108;28;20481;-64
2022/10/20 15:56:48;;;;;;;5.30;4.73;;;16.40;79.10;;;;;;6327673;28;20470;-64
2022/10/20 15:59:53;;;;;;;8.00;6.87;;;16.40;79.80;;;;;;6327404;28;20467;-64
2022/10/20 16:02:57;;;;;;;10.07;8.03;;;16.40;80.30;;;;;;6328208;28;20777;-64
2022/10/20 16:06:01;;;;;;;8.30;7.50;;;16.30;80.10;;;;;;6352336;28;20432;-65
2022/10/20 16:09:05;;;;;;;9.77;7.00;;;16.30;81.10;;;;;;6328125;28;20471;-65
2022/10/20 16:12:11;;;;;;;10.70;6.30;;;16.20;81.10;;;;;;6330457;28;20467;-65
2022/10/20 16:15:16;;;;;;;9.43;6.57;;;16.20;81.70;;;;;;6352837;28;20456;-65
2022/10/20 16:18:19;;;;;;;10.87;6.77;;;16.20;82.60;;;;;;6352499;28;20475;-64
2022/10/20 16:21:22;;;;;;;6.27;5.67;;;16.10;82.70;;;;;;6340854;28;20460;-65